sensor_id;sensor_type;location;lat;lon;timestamp;temperature;humidity
14401;DHT22;7285;50.894;5.462;2022-12-15T00:00:47;-7.30;1.00
14401;DHT22;7285;50.894;5.462;2022-12-15T00:03:31;-7.30;1.00
14401;DHT22;7285;50.894;5.462;2022-12-15T00:06:17;-7.40;1.00
14401;DHT22;7285;50.894;5.462;2022-12-15T00:09:01;-7.40;1.00
14401;DHT22;7285;50.894;5.462;2022-12-15T00:11:46;-7.40;1.00
14401;DHT22;7285;50.894;5.462;2022-12-15T00:14:30;-7.40;1.00
14401;DHT22;7285;50.894;5.462;2022-12-15T00:17:14;-7.40;99.90
14401;DHT22;7285;50.894;5.462;2022-12-15T00:19:59;-7.40;99.90
14401;DHT22;7285;50.894;5.462;2022-12-15T00:22:44;-7.40;99.90
14401;DHT22;7285;50.894;5.462;2022-12-15T00:25:29;-7.50;99.90
14401;DHT22;7285;50.894;5.462;2022-12-15T00:28:13;-7.50;99.90
14401;DHT22;7285;50.894;5.462;2022-12-15T00:30:57;-7.50;91.10
14401;DHT22;7285;50.894;5.462;2022-12-15T00:33:42;-7.50;99.90
14401;DHT22;7285;50.894;5.462;2022-12-15T00:36:27;-7.40;99.90
14401;DHT22;7285;50.894;5.462;2022-12-15T00:39:13;-7.40;99.90
14401;DHT22;7285;50.894;5.462;2022-12-15T00:41:40;-7.40;99.90
14401;DHT22;7285;50.894;5.462;2022-12-15T00:44:07;-7.50;99.90
14401;DHT22;7285;50.894;5.462;2022-12-15T00:46:34;-7.50;99.90
14401;DHT22;7285;50.894;5.462;2022-12-15T00:49:18;-7.40;99.90
14401;DHT22;7285;50.894;5.462;2022-12-15T00:52:02;-7.40;99.90
14401;DHT22;7285;50.894;5.462;2022-12-15T00:54:48;-7.40;99.90
14401;DHT22;7285;50.894;5.462;2022-12-15T00:57:33;-7.50;99.90
14401;DHT22;7285;50.894;5.462;2022-12-15T01:00:17;-7.50;99.90
14401;DHT22;7285;50.894;5.462;2022-12-15T01:03:08;-7.50;8.70
14401;DHT22;7285;50.894;5.462;2022-12-15T01:05:53;-7.60;1.00
14401;DHT22;7285;50.894;5.462;2022-12-15T01:08:37;-7.60;1.00
14401;DHT22;7285;50.894;5.462;2022-12-15T01:11:22;-7.60;1.00
14401;DHT22;7285;50.894;5.462;2022-12-15T01:14:07;-7.60;1.00
14401;DHT22;7285;50.894;5.462;2022-12-15T01:16:51;-7.50;25.70
14401;DHT22;7285;50.894;5.462;2022-12-15T01:19:35;-7.70;1.00
14401;DHT22;7285;50.894;5.462;2022-12-15T01:22:19;-7.80;1.00
14401;DHT22;7285;50.894;5.462;2022-12-15T01:24:46;-7.80;1.00
14401;DHT22;7285;50.894;5.462;2022-12-15T01:27:15;-7.80;1.00
14401;DHT22;7285;50.894;5.462;2022-12-15T01:29:42;-7.80;1.00
14401;DHT22;7285;50.894;5.462;2022-12-15T01:32:09;-7.80;1.00
14401;DHT22;7285;50.894;5.462;2022-12-15T01:34:36;-7.80;1.00
14401;DHT22;7285;50.894;5.462;2022-12-15T01:37:02;-7.80;1.00
14401;DHT22;7285;50.894;5.462;2022-12-15T01:39:29;-7.80;1.00
14401;DHT22;7285;50.894;5.462;2022-12-15T01:42:18;-7.80;1.00
14401;DHT22;7285;50.894;5.462;2022-12-15T01:44:48;-7.80;1.00
14401;DHT22;7285;50.894;5.462;2022-12-15T01:47:16;-7.80;1.00
14401;DHT22;7285;50.894;5.462;2022-12-15T01:49:43;-7.80;1.00
14401;DHT22;7285;50.894;5.462;2022-12-15T01:52:13;-7.90;1.00
14401;DHT22;7285;50.894;5.462;2022-12-15T01:54:44;-7.90;1.00
14401;DHT22;7285;50.894;5.462;2022-12-15T01:57:14;-7.80;1.00
14401;DHT22;7285;50.894;5.462;2022-12-15T01:59:46;-7.80;1.00
14401;DHT22;7285;50.894;5.462;2022-12-15T02:02:16;-7.90;1.00
14401;DHT22;7285;50.894;5.462;2022-12-15T02:04:44;-7.80;1.00
14401;DHT22;7285;50.894;5.462;2022-12-15T02:07:12;-7.80;1.00
14401;DHT22;7285;50.894;5.462;2022-12-15T02:09:40;-7.80;1.00
14401;DHT22;7285;50.894;5.462;2022-12-15T02:12:16;-7.80;1.00
14401;DHT22;7285;50.894;5.462;2022-12-15T02:15:00;-7.80;1.00
14401;DHT22;7285;50.894;5.462;2022-12-15T02:17:34;-7.80;1.00
14401;DHT22;7285;50.894;5.462;2022-12-15T02:20:32;-7.80;1.00
14401;DHT22;7285;50.894;5.462;2022-12-15T02:23:38;-7.80;1.00
14401;DHT22;7285;50.894;5.462;2022-12-15T02:29:29;-7.80;1.00
14401;DHT22;7285;50.894;5.462;2022-12-15T02:32:07;-7.80;1.00
14401;DHT22;7285;50.894;5.462;2022-12-15T02:34:39;-7.90;1.00
14401;DHT22;7285;50.894;5.462;2022-12-15T02:37:11;-7.90;1.00
14401;DHT22;7285;50.894;5.462;2022-12-15T02:39:39;-7.90;1.00
14401;DHT22;7285;50.894;5.462;2022-12-15T02:42:08;-7.90;1.00
14401;DHT22;7285;50.894;5.462;2022-12-15T02:44:38;-7.90;1.00
14401;DHT22;7285;50.894;5.462;2022-12-15T02:47:26;-8.00;1.00
14401;DHT22;7285;50.894;5.462;2022-12-15T02:50:06;-8.00;1.00
14401;DHT22;7285;50.894;5.462;2022-12-15T02:52:45;-7.90;97.60
14401;DHT22;7285;50.894;5.462;2022-12-15T02:55:19;-7.90;94.60
14401;DHT22;7285;50.894;5.462;2022-12-15T02:57:53;-8.00;15.70
14401;DHT22;7285;50.894;5.462;2022-12-15T03:00:20;-8.00;27.10
14401;DHT22;7285;50.894;5.462;2022-12-15T03:02:51;-7.90;99.90
14401;DHT22;7285;50.894;5.462;2022-12-15T03:05:20;-7.80;99.90
14401;DHT22;7285;50.894;5.462;2022-12-15T03:07:49;-7.80;99.90
14401;DHT22;7285;50.894;5.462;2022-12-15T03:10:17;-7.80;99.90
14401;DHT22;7285;50.894;5.462;2022-12-15T03:12:44;-7.80;92.00
14401;DHT22;7285;50.894;5.462;2022-12-15T03:15:11;-7.80;75.70
14401;DHT22;7285;50.894;5.462;2022-12-15T03:17:38;-7.80;24.10
14401;DHT22;7285;50.894;5.462;2022-12-15T03:20:08;-7.80;1.00
14401;DHT22;7285;50.894;5.462;2022-12-15T03:22:35;-8.00;1.00
14401;DHT22;7285;50.894;5.462;2022-12-15T03:25:03;-8.00;1.00
14401;DHT22;7285;50.894;5.462;2022-12-15T03:27:31;-8.00;1.00
14401;DHT22;7285;50.894;5.462;2022-12-15T03:29:58;-8.00;1.00
14401;DHT22;7285;50.894;5.462;2022-12-15T03:32:25;-8.10;1.00
14401;DHT22;7285;50.894;5.462;2022-12-15T03:34:52;-8.00;1.00
14401;DHT22;7285;50.894;5.462;2022-12-15T03:37:21;-8.10;1.00
14401;DHT22;7285;50.894;5.462;2022-12-15T03:39:47;-8.10;1.00
14401;DHT22;7285;50.894;5.462;2022-12-15T03:42:14;-8.10;1.00
14401;DHT22;7285;50.894;5.462;2022-12-15T03:45:02;-8.10;1.00
14401;DHT22;7285;50.894;5.462;2022-12-15T03:47:29;-8.10;1.00
14401;DHT22;7285;50.894;5.462;2022-12-15T03:49:56;-8.10;1.00
14401;DHT22;7285;50.894;5.462;2022-12-15T03:52:24;-8.20;1.00
14401;DHT22;7285;50.894;5.462;2022-12-15T03:54:51;-8.20;1.00
14401;DHT22;7285;50.894;5.462;2022-12-15T03:57:18;-8.20;1.00
14401;DHT22;7285;50.894;5.462;2022-12-15T03:59:45;-8.10;1.00
14401;DHT22;7285;50.894;5.462;2022-12-15T04:02:12;-8.20;5.80
14401;DHT22;7285;50.894;5.462;2022-12-15T04:04:39;-8.10;73.50
14401;DHT22;7285;50.894;5.462;2022-12-15T04:07:06;-8.00;97.60
14401;DHT22;7285;50.894;5.462;2022-12-15T04:09:35;-8.10;61.00
14401;DHT22;7285;50.894;5.462;2022-12-15T04:12:02;-8.10;1.00
14401;DHT22;7285;50.894;5.462;2022-12-15T04:14:29;-8.10;1.00
14401;DHT22;7285;50.894;5.462;2022-12-15T04:16:56;-8.10;1.00
14401;DHT22;7285;50.894;5.462;2022-12-15T04:19:23;-8.20;1.00
14401;DHT22;7285;50.894;5.462;2022-12-15T04:22:07;-8.20;1.00
14401;DHT22;7285;50.894;5.462;2022-12-15T04:24:36;-8.20;1.00
14401;DHT22;7285;50.894;5.462;2022-12-15T04:27:20;-8.10;1.00
14401;DHT22;7285;50.894;5.462;2022-12-15T04:30:05;-8.20;1.00
14401;DHT22;7285;50.894;5.462;2022-12-15T04:32:50;-8.10;1.00
14401;DHT22;7285;50.894;5.462;2022-12-15T04:35:34;-8.10;1.00
14401;DHT22;7285;50.894;5.462;2022-12-15T04:38:19;-8.00;7.20
14401;DHT22;7285;50.894;5.462;2022-12-15T04:41:05;-7.90;39.60
14401;DHT22;7285;50.894;5.462;2022-12-15T04:43:49;-7.80;75.30
14401;DHT22;7285;50.894;5.462;2022-12-15T04:46:34;-7.90;1.00
14401;DHT22;7285;50.894;5.462;2022-12-15T04:49:18;-7.90;11.50
14401;DHT22;7285;50.894;5.462;2022-12-15T04:52:02;-7.90;21.90
14401;DHT22;7285;50.894;5.462;2022-12-15T04:54:47;-7.80;51.50
14401;DHT22;7285;50.894;5.462;2022-12-15T04:57:33;-7.80;65.80
14401;DHT22;7285;50.894;5.462;2022-12-15T05:00:18;-7.80;99.90
14401;DHT22;7285;50.894;5.462;2022-12-15T05:03:04;-7.80;99.90
14401;DHT22;7285;50.894;5.462;2022-12-15T05:05:48;-7.90;76.90
14401;DHT22;7285;50.894;5.462;2022-12-15T05:08:33;-7.90;88.50
14401;DHT22;7285;50.894;5.462;2022-12-15T05:11:17;-7.90;36.90
14401;DHT22;7285;50.894;5.462;2022-12-15T05:14:03;-7.90;78.50
14401;DHT22;7285;50.894;5.462;2022-12-15T05:16:48;-7.90;99.90
14401;DHT22;7285;50.894;5.462;2022-12-15T05:19:32;-7.80;99.90
14401;DHT22;7285;50.894;5.462;2022-12-15T05:22:16;-7.90;99.90
14401;DHT22;7285;50.894;5.462;2022-12-15T05:25:00;-7.90;99.90
14401;DHT22;7285;50.894;5.462;2022-12-15T05:27:45;-8.00;99.90
14401;DHT22;7285;50.894;5.462;2022-12-15T05:30:31;-8.00;99.90
14401;DHT22;7285;50.894;5.462;2022-12-15T05:33:15;-7.90;99.90
14401;DHT22;7285;50.894;5.462;2022-12-15T05:35:42;-7.90;92.40
14401;DHT22;7285;50.894;5.462;2022-12-15T05:38:09;-8.00;12.40
14401;DHT22;7285;50.894;5.462;2022-12-15T05:40:36;-8.00;1.00
14401;DHT22;7285;50.894;5.462;2022-12-15T05:43:02;-8.00;1.00
14401;DHT22;7285;50.894;5.462;2022-12-15T05:45:31;-8.00;1.00
14401;DHT22;7285;50.894;5.462;2022-12-15T05:47:58;-8.10;1.00
14401;DHT22;7285;50.894;5.462;2022-12-15T05:50:25;-8.00;1.00
14401;DHT22;7285;50.894;5.462;2022-12-15T05:52:52;-8.00;1.00
14401;DHT22;7285;50.894;5.462;2022-12-15T05:55:20;-8.10;1.00
14401;DHT22;7285;50.894;5.462;2022-12-15T05:57:50;-8.10;1.00
14401;DHT22;7285;50.894;5.462;2022-12-15T06:00:18;-8.20;1.00
14401;DHT22;7285;50.894;5.462;2022-12-15T06:02:47;-8.20;1.00
14401;DHT22;7285;50.894;5.462;2022-12-15T06:05:14;-8.20;1.00
14401;DHT22;7285;50.894;5.462;2022-12-15T06:07:41;-8.20;1.00
14401;DHT22;7285;50.894;5.462;2022-12-15T06:10:08;-8.20;1.00
14401;DHT22;7285;50.894;5.462;2022-12-15T06:12:37;-8.30;1.00
14401;DHT22;7285;50.894;5.462;2022-12-15T06:15:05;-8.30;1.00
14401;DHT22;7285;50.894;5.462;2022-12-15T06:17:32;-8.20;1.00
14401;DHT22;7285;50.894;5.462;2022-12-15T06:20:00;-8.20;1.00
14401;DHT22;7285;50.894;5.462;2022-12-15T06:22:28;-8.20;1.00
14401;DHT22;7285;50.894;5.462;2022-12-15T06:24:55;-8.30;1.00
14401;DHT22;7285;50.894;5.462;2022-12-15T06:27:22;-8.30;1.00
14401;DHT22;7285;50.894;5.462;2022-12-15T06:29:49;-8.20;1.00
14401;DHT22;7285;50.894;5.462;2022-12-15T06:32:16;-8.30;1.00
14401;DHT22;7285;50.894;5.462;2022-12-15T06:34:43;-8.20;1.00
14401;DHT22;7285;50.894;5.462;2022-12-15T06:37:11;-8.20;1.00
14401;DHT22;7285;50.894;5.462;2022-12-15T06:39:38;-8.20;1.00
14401;DHT22;7285;50.894;5.462;2022-12-15T06:42:05;-8.20;1.00
14401;DHT22;7285;50.894;5.462;2022-12-15T06:44:32;-8.10;1.00
14401;DHT22;7285;50.894;5.462;2022-12-15T06:46:59;-8.10;1.00
14401;DHT22;7285;50.894;5.462;2022-12-15T06:49:26;-8.10;1.00
14401;DHT22;7285;50.894;5.462;2022-12-15T06:51:53;-8.10;1.00
14401;DHT22;7285;50.894;5.462;2022-12-15T06:54:21;-8.20;1.00
14401;DHT22;7285;50.894;5.462;2022-12-15T06:56:48;-8.20;1.00
14401;DHT22;7285;50.894;5.462;2022-12-15T06:59:15;-8.30;1.00
14401;DHT22;7285;50.894;5.462;2022-12-15T07:01:41;-8.20;1.00
14401;DHT22;7285;50.894;5.462;2022-12-15T07:04:08;-8.20;1.00
14401;DHT22;7285;50.894;5.462;2022-12-15T07:06:36;-8.20;1.00
14401;DHT22;7285;50.894;5.462;2022-12-15T07:09:04;-8.20;1.00
14401;DHT22;7285;50.894;5.462;2022-12-15T07:11:34;-8.20;1.00
14401;DHT22;7285;50.894;5.462;2022-12-15T07:14:01;-8.20;2.90
14401;DHT22;7285;50.894;5.462;2022-12-15T07:16:29;-8.20;29.80
14401;DHT22;7285;50.894;5.462;2022-12-15T07:18:56;-8.30;1.00
14401;DHT22;7285;50.894;5.462;2022-12-15T07:21:23;-8.20;2.30
14401;DHT22;7285;50.894;5.462;2022-12-15T07:23:50;-8.20;62.00
14401;DHT22;7285;50.894;5.462;2022-12-15T07:26:17;-8.20;48.90
14401;DHT22;7285;50.894;5.462;2022-12-15T07:28:45;-8.30;11.40
14401;DHT22;7285;50.894;5.462;2022-12-15T07:31:12;-8.20;37.90
14401;DHT22;7285;50.894;5.462;2022-12-15T07:33:39;-8.20;13.20
14401;DHT22;7285;50.894;5.462;2022-12-15T07:36:07;-8.10;26.50
14401;DHT22;7285;50.894;5.462;2022-12-15T07:38:34;-8.10;73.50
14401;DHT22;7285;50.894;5.462;2022-12-15T07:41:02;-8.10;85.00
14401;DHT22;7285;50.894;5.462;2022-12-15T07:43:30;-8.10;85.20
14401;DHT22;7285;50.894;5.462;2022-12-15T07:45:58;-8.20;90.70
14401;DHT22;7285;50.894;5.462;2022-12-15T07:48:26;-8.10;99.90
14401;DHT22;7285;50.894;5.462;2022-12-15T07:50:53;-8.10;99.90
14401;DHT22;7285;50.894;5.462;2022-12-15T07:53:24;-8.10;99.90
14401;DHT22;7285;50.894;5.462;2022-12-15T07:55:55;-8.00;99.90
14401;DHT22;7285;50.894;5.462;2022-12-15T07:58:23;-8.00;99.90
14401;DHT22;7285;50.894;5.462;2022-12-15T08:00:51;-8.00;99.90
14401;DHT22;7285;50.894;5.462;2022-12-15T08:03:19;-8.00;99.90
14401;DHT22;7285;50.894;5.462;2022-12-15T08:05:46;-8.10;44.00
14401;DHT22;7285;50.894;5.462;2022-12-15T08:08:13;-8.00;99.90
14401;DHT22;7285;50.894;5.462;2022-12-15T08:10:40;-8.00;99.90
14401;DHT22;7285;50.894;5.462;2022-12-15T08:13:07;-8.00;99.90
14401;DHT22;7285;50.894;5.462;2022-12-15T08:15:35;-7.90;99.90
14401;DHT22;7285;50.894;5.462;2022-12-15T08:18:02;-7.90;99.90
14401;DHT22;7285;50.894;5.462;2022-12-15T08:20:31;-7.90;91.10
14401;DHT22;7285;50.894;5.462;2022-12-15T08:22:59;-7.90;78.80
14401;DHT22;7285;50.894;5.462;2022-12-15T08:25:26;-7.90;1.00
14401;DHT22;7285;50.894;5.462;2022-12-15T08:27:54;-8.00;1.00
14401;DHT22;7285;50.894;5.462;2022-12-15T08:30:22;-7.90;1.00
14401;DHT22;7285;50.894;5.462;2022-12-15T08:32:49;-7.90;6.10
14401;DHT22;7285;50.894;5.462;2022-12-15T08:35:16;-7.80;99.50
14401;DHT22;7285;50.894;5.462;2022-12-15T08:37:44;-7.70;99.90
14401;DHT22;7285;50.894;5.462;2022-12-15T08:40:11;-7.70;99.90
14401;DHT22;7285;50.894;5.462;2022-12-15T08:42:38;-7.70;99.90
14401;DHT22;7285;50.894;5.462;2022-12-15T08:45:06;-7.60;99.90
14401;DHT22;7285;50.894;5.462;2022-12-15T08:47:33;-7.50;99.90
14401;DHT22;7285;50.894;5.462;2022-12-15T08:50:00;-7.40;99.90
14401;DHT22;7285;50.894;5.462;2022-12-15T08:52:27;-7.20;99.90
14401;DHT22;7285;50.894;5.462;2022-12-15T08:54:55;-7.10;99.90
14401;DHT22;7285;50.894;5.462;2022-12-15T08:57:22;-6.90;99.90
14401;DHT22;7285;50.894;5.462;2022-12-15T08:59:49;-6.80;99.90
14401;DHT22;7285;50.894;5.462;2022-12-15T09:02:16;-6.80;99.90
14401;DHT22;7285;50.894;5.462;2022-12-15T09:04:43;-6.60;1.00
14401;DHT22;7285;50.894;5.462;2022-12-15T09:07:10;-6.50;1.00
14401;DHT22;7285;50.894;5.462;2022-12-15T09:09:38;-6.30;1.00
14401;DHT22;7285;50.894;5.462;2022-12-15T09:12:09;-6.20;1.00
14401;DHT22;7285;50.894;5.462;2022-12-15T09:14:37;-6.00;1.00
14401;DHT22;7285;50.894;5.462;2022-12-15T09:17:04;-5.90;1.00
14401;DHT22;7285;50.894;5.462;2022-12-15T09:19:31;-5.70;1.00
14401;DHT22;7285;50.894;5.462;2022-12-15T09:22:00;-5.70;1.00
14401;DHT22;7285;50.894;5.462;2022-12-15T09:24:27;-5.50;1.00
14401;DHT22;7285;50.894;5.462;2022-12-15T09:26:54;-5.40;1.00
14401;DHT22;7285;50.894;5.462;2022-12-15T09:29:23;-5.30;99.90
14401;DHT22;7285;50.894;5.462;2022-12-15T09:31:50;-5.10;99.90
14401;DHT22;7285;50.894;5.462;2022-12-15T09:34:17;-5.00;99.90
14401;DHT22;7285;50.894;5.462;2022-12-15T09:36:44;-4.80;1.00
14401;DHT22;7285;50.894;5.462;2022-12-15T09:39:10;-4.70;1.00
14401;DHT22;7285;50.894;5.462;2022-12-15T09:41:51;-4.70;99.90
14401;DHT22;7285;50.894;5.462;2022-12-15T09:44:22;-4.50;99.90
14401;DHT22;7285;50.894;5.462;2022-12-15T09:46:57;-4.40;99.90
14401;DHT22;7285;50.894;5.462;2022-12-15T09:49:38;-4.20;99.90
14401;DHT22;7285;50.894;5.462;2022-12-15T09:52:11;-4.10;99.90
14401;DHT22;7285;50.894;5.462;2022-12-15T09:54:39;-4.00;99.90
14401;DHT22;7285;50.894;5.462;2022-12-15T09:57:11;-3.70;80.60
14401;DHT22;7285;50.894;5.462;2022-12-15T09:59:54;-3.70;22.80
14401;DHT22;7285;50.894;5.462;2022-12-15T10:05:27;-3.40;1.00
14401;DHT22;7285;50.894;5.462;2022-12-15T10:07:59;-3.30;1.00
14401;DHT22;7285;50.894;5.462;2022-12-15T10:10:32;-3.20;1.00
14401;DHT22;7285;50.894;5.462;2022-12-15T10:13:03;-3.10;1.00
14401;DHT22;7285;50.894;5.462;2022-12-15T10:15:40;-3.00;1.00
14401;DHT22;7285;50.894;5.462;2022-12-15T10:18:17;-2.80;1.00
14401;DHT22;7285;50.894;5.462;2022-12-15T10:20:46;-2.70;1.00
14401;DHT22;7285;50.894;5.462;2022-12-15T10:23:15;-2.60;1.00
14401;DHT22;7285;50.894;5.462;2022-12-15T10:25:45;-2.50;1.00
14401;DHT22;7285;50.894;5.462;2022-12-15T10:28:38;-2.30;1.00
14401;DHT22;7285;50.894;5.462;2022-12-15T10:31:17;-2.20;1.00
14401;DHT22;7285;50.894;5.462;2022-12-15T10:33:50;-2.10;1.00
14401;DHT22;7285;50.894;5.462;2022-12-15T10:36:20;-1.90;1.00
14401;DHT22;7285;50.894;5.462;2022-12-15T10:38:47;-1.80;1.00
14401;DHT22;7285;50.894;5.462;2022-12-15T10:41:15;-1.70;1.00
14401;DHT22;7285;50.894;5.462;2022-12-15T10:43:44;-1.60;1.00
14401;DHT22;7285;50.894;5.462;2022-12-15T10:46:14;-1.40;1.00
14401;DHT22;7285;50.894;5.462;2022-12-15T10:48:44;-1.40;1.00
14401;DHT22;7285;50.894;5.462;2022-12-15T10:51:20;-1.30;99.90
14401;DHT22;7285;50.894;5.462;2022-12-15T10:53:49;-1.30;99.90
14401;DHT22;7285;50.894;5.462;2022-12-15T10:56:23;-1.30;99.90
14401;DHT22;7285;50.894;5.462;2022-12-15T10:58:52;-1.20;99.90
14401;DHT22;7285;50.894;5.462;2022-12-15T11:01:24;-1.20;99.90
14401;DHT22;7285;50.894;5.462;2022-12-15T11:03:51;-1.00;99.90
14401;DHT22;7285;50.894;5.462;2022-12-15T11:06:21;-1.00;99.90
14401;DHT22;7285;50.894;5.462;2022-12-15T11:08:50;-0.80;99.90
14401;DHT22;7285;50.894;5.462;2022-12-15T11:11:28;-0.80;99.90
14401;DHT22;7285;50.894;5.462;2022-12-15T11:14:16;-0.70;99.90
14401;DHT22;7285;50.894;5.462;2022-12-15T11:16:53;-0.40;99.90
14401;DHT22;7285;50.894;5.462;2022-12-15T11:19:30;-0.40;99.90
14401;DHT22;7285;50.894;5.462;2022-12-15T11:22:04;-0.30;99.90
14401;DHT22;7285;50.894;5.462;2022-12-15T11:24:37;-0.10;99.90
14401;DHT22;7285;50.894;5.462;2022-12-15T11:27:12;0.00;99.90
14401;DHT22;7285;50.894;5.462;2022-12-15T11:29:53;0.10;99.90
14401;DHT22;7285;50.894;5.462;2022-12-15T11:32:25;0.30;94.20
14401;DHT22;7285;50.894;5.462;2022-12-15T11:34:53;0.40;24.20
14401;DHT22;7285;50.894;5.462;2022-12-15T11:37:36;0.60;9.60
14401;DHT22;7285;50.894;5.462;2022-12-15T11:40:32;0.90;1.00
14401;DHT22;7285;50.894;5.462;2022-12-15T11:43:17;1.00;1.00
14401;DHT22;7285;50.894;5.462;2022-12-15T11:45:58;1.10;1.00
14401;DHT22;7285;50.894;5.462;2022-12-15T11:48:34;1.50;1.00
14401;DHT22;7285;50.894;5.462;2022-12-15T11:51:05;2.00;1.00
14401;DHT22;7285;50.894;5.462;2022-12-15T11:56:34;3.50;1.00
14401;DHT22;7285;50.894;5.462;2022-12-15T11:59:18;4.50;1.00
14401;DHT22;7285;50.894;5.462;2022-12-15T12:01:59;4.50;1.00
14401;DHT22;7285;50.894;5.462;2022-12-15T12:04:37;3.20;1.00
14401;DHT22;7285;50.894;5.462;2022-12-15T12:07:10;3.30;1.00
14401;DHT22;7285;50.894;5.462;2022-12-15T12:09:46;4.80;1.00
14401;DHT22;7285;50.894;5.462;2022-12-15T12:12:24;4.30;1.00
14401;DHT22;7285;50.894;5.462;2022-12-15T12:15:20;3.50;1.00
14401;DHT22;7285;50.894;5.462;2022-12-15T12:17:51;4.60;1.00
14401;DHT22;7285;50.894;5.462;2022-12-15T12:20:22;6.00;1.00
14401;DHT22;7285;50.894;5.462;2022-12-15T12:22:58;5.70;1.00
14401;DHT22;7285;50.894;5.462;2022-12-15T12:25:27;6.40;1.00
14401;DHT22;7285;50.894;5.462;2022-12-15T12:27:59;6.10;1.00
14401;DHT22;7285;50.894;5.462;2022-12-15T12:30:30;5.90;1.00
14401;DHT22;7285;50.894;5.462;2022-12-15T12:33:04;4.90;1.00
14401;DHT22;7285;50.894;5.462;2022-12-15T12:35:41;4.60;1.00
14401;DHT22;7285;50.894;5.462;2022-12-15T12:38:11;4.30;1.00
14401;DHT22;7285;50.894;5.462;2022-12-15T12:40:50;3.90;1.00
14401;DHT22;7285;50.894;5.462;2022-12-15T12:43:25;3.60;1.00
14401;DHT22;7285;50.894;5.462;2022-12-15T12:45:59;3.40;1.00
14401;DHT22;7285;50.894;5.462;2022-12-15T12:48:32;3.30;1.00
14401;DHT22;7285;50.894;5.462;2022-12-15T12:51:27;3.20;1.00
14401;DHT22;7285;50.894;5.462;2022-12-15T12:53:56;3.20;1.00
14401;DHT22;7285;50.894;5.462;2022-12-15T12:56:41;3.70;1.00
14401;DHT22;7285;50.894;5.462;2022-12-15T12:59:31;3.80;1.00
14401;DHT22;7285;50.894;5.462;2022-12-15T13:05:28;3.80;99.90
14401;DHT22;7285;50.894;5.462;2022-12-15T13:08:25;3.60;99.90
14401;DHT22;7285;50.894;5.462;2022-12-15T13:10:53;3.80;99.90
14401;DHT22;7285;50.894;5.462;2022-12-15T13:13:42;4.10;99.90
14401;DHT22;7285;50.894;5.462;2022-12-15T13:16:16;4.50;99.90
14401;DHT22;7285;50.894;5.462;2022-12-15T13:18:57;4.40;99.90
14401;DHT22;7285;50.894;5.462;2022-12-15T13:21:50;4.40;99.90
14401;DHT22;7285;50.894;5.462;2022-12-15T13:24:25;4.50;99.90
14401;DHT22;7285;50.894;5.462;2022-12-15T13:29:55;4.30;99.90
14401;DHT22;7285;50.894;5.462;2022-12-15T13:32:32;4.20;99.90
14401;DHT22;7285;50.894;5.462;2022-12-15T13:35:14;4.10;99.90
14401;DHT22;7285;50.894;5.462;2022-12-15T13:37:48;4.10;99.90
14401;DHT22;7285;50.894;5.462;2022-12-15T13:40:28;3.50;99.90
14401;DHT22;7285;50.894;5.462;2022-12-15T13:43:06;3.40;99.90
14401;DHT22;7285;50.894;5.462;2022-12-15T13:45:46;3.50;99.90
14401;DHT22;7285;50.894;5.462;2022-12-15T13:51:21;3.60;99.90
14401;DHT22;7285;50.894;5.462;2022-12-15T13:53:54;3.60;99.90
14401;DHT22;7285;50.894;5.462;2022-12-15T13:56:38;3.50;99.90
14401;DHT22;7285;50.894;5.462;2022-12-15T13:59:15;3.50;99.90
14401;DHT22;7285;50.894;5.462;2022-12-15T14:01:48;3.20;99.90
14401;DHT22;7285;50.894;5.462;2022-12-15T14:04:16;3.20;99.90
14401;DHT22;7285;50.894;5.462;2022-12-15T14:06:46;3.00;99.90
14401;DHT22;7285;50.894;5.462;2022-12-15T14:09:19;2.90;99.90
14401;DHT22;7285;50.894;5.462;2022-12-15T14:11:47;2.70;99.90
14401;DHT22;7285;50.894;5.462;2022-12-15T14:14:17;2.70;99.90
14401;DHT22;7285;50.894;5.462;2022-12-15T14:16:45;2.70;99.90
14401;DHT22;7285;50.894;5.462;2022-12-15T14:19:17;2.60;99.90
14401;DHT22;7285;50.894;5.462;2022-12-15T14:21:52;2.60;99.90
14401;DHT22;7285;50.894;5.462;2022-12-15T14:24:24;2.50;99.90
14401;DHT22;7285;50.894;5.462;2022-12-15T14:26:51;2.40;99.90
14401;DHT22;7285;50.894;5.462;2022-12-15T14:29:18;2.30;99.90
14401;DHT22;7285;50.894;5.462;2022-12-15T14:31:48;2.20;99.90
14401;DHT22;7285;50.894;5.462;2022-12-15T14:34:22;2.20;99.90
14401;DHT22;7285;50.894;5.462;2022-12-15T14:36:50;2.20;99.90
14401;DHT22;7285;50.894;5.462;2022-12-15T14:39:20;2.10;99.90
14401;DHT22;7285;50.894;5.462;2022-12-15T14:41:50;2.00;99.90
14401;DHT22;7285;50.894;5.462;2022-12-15T14:44:22;1.80;99.90
14401;DHT22;7285;50.894;5.462;2022-12-15T14:46:53;1.70;99.90
14401;DHT22;7285;50.894;5.462;2022-12-15T14:49:22;1.50;1.00
14401;DHT22;7285;50.894;5.462;2022-12-15T14:51:52;1.40;1.00
14401;DHT22;7285;50.894;5.462;2022-12-15T14:54:29;1.30;99.90
14401;DHT22;7285;50.894;5.462;2022-12-15T14:57:00;1.20;1.00
14401;DHT22;7285;50.894;5.462;2022-12-15T14:59:31;1.00;1.00
14401;DHT22;7285;50.894;5.462;2022-12-15T15:02:09;0.90;1.00
14401;DHT22;7285;50.894;5.462;2022-12-15T15:04:38;0.90;1.00
14401;DHT22;7285;50.894;5.462;2022-12-15T15:07:13;0.80;1.00
14401;DHT22;7285;50.894;5.462;2022-12-15T15:09:42;0.80;1.00
14401;DHT22;7285;50.894;5.462;2022-12-15T15:12:15;0.60;1.00
14401;DHT22;7285;50.894;5.462;2022-12-15T15:14:44;0.50;1.00
14401;DHT22;7285;50.894;5.462;2022-12-15T15:17:30;0.40;1.00
14401;DHT22;7285;50.894;5.462;2022-12-15T15:20:01;0.30;1.00
14401;DHT22;7285;50.894;5.462;2022-12-15T15:22:37;0.20;1.00
14401;DHT22;7285;50.894;5.462;2022-12-15T15:25:24;0.10;1.00
14401;DHT22;7285;50.894;5.462;2022-12-15T15:28:01;0.00;1.00
14401;DHT22;7285;50.894;5.462;2022-12-15T15:30:28;-0.10;1.00
14401;DHT22;7285;50.894;5.462;2022-12-15T15:32:56;-0.20;1.00
14401;DHT22;7285;50.894;5.462;2022-12-15T15:35:28;-0.30;1.00
14401;DHT22;7285;50.894;5.462;2022-12-15T15:38:00;-0.40;1.00
14401;DHT22;7285;50.894;5.462;2022-12-15T15:40:28;-0.50;1.00
14401;DHT22;7285;50.894;5.462;2022-12-15T15:42:56;-0.60;1.00
14401;DHT22;7285;50.894;5.462;2022-12-15T15:45:23;-0.70;1.00
14401;DHT22;7285;50.894;5.462;2022-12-15T15:47:51;-0.80;1.00
14401;DHT22;7285;50.894;5.462;2022-12-15T15:50:26;-0.90;1.00
14401;DHT22;7285;50.894;5.462;2022-12-15T15:52:54;-0.90;1.00
14401;DHT22;7285;50.894;5.462;2022-12-15T15:55:25;-1.00;1.00
14401;DHT22;7285;50.894;5.462;2022-12-15T15:57:53;-1.10;1.00
14401;DHT22;7285;50.894;5.462;2022-12-15T16:00:25;-1.20;1.00
14401;DHT22;7285;50.894;5.462;2022-12-15T16:02:52;-1.20;1.00
14401;DHT22;7285;50.894;5.462;2022-12-15T16:05:19;-1.40;1.00
14401;DHT22;7285;50.894;5.462;2022-12-15T16:07:46;-1.50;1.00
14401;DHT22;7285;50.894;5.462;2022-12-15T16:10:16;-1.60;1.00
14401;DHT22;7285;50.894;5.462;2022-12-15T16:12:46;-1.60;1.00
14401;DHT22;7285;50.894;5.462;2022-12-15T16:15:16;-1.60;1.00
14401;DHT22;7285;50.894;5.462;2022-12-15T16:17:45;-1.70;1.00
14401;DHT22;7285;50.894;5.462;2022-12-15T16:20:14;-1.70;1.00
14401;DHT22;7285;50.894;5.462;2022-12-15T16:22:43;-1.80;1.00
14401;DHT22;7285;50.894;5.462;2022-12-15T16:25:13;-1.80;1.00
14401;DHT22;7285;50.894;5.462;2022-12-15T16:27:41;-1.90;1.00
14401;DHT22;7285;50.894;5.462;2022-12-15T16:30:20;-1.90;1.00
14401;DHT22;7285;50.894;5.462;2022-12-15T16:32:49;-1.90;1.00
14401;DHT22;7285;50.894;5.462;2022-12-15T16:35:17;-1.90;1.00
14401;DHT22;7285;50.894;5.462;2022-12-15T16:37:44;-1.90;1.00
14401;DHT22;7285;50.894;5.462;2022-12-15T16:40:17;-2.00;1.00
14401;DHT22;7285;50.894;5.462;2022-12-15T16:42:51;-2.00;1.00
14401;DHT22;7285;50.894;5.462;2022-12-15T16:45:20;-2.10;1.00
14401;DHT22;7285;50.894;5.462;2022-12-15T16:47:49;-2.20;1.00
14401;DHT22;7285;50.894;5.462;2022-12-15T16:50:17;-2.20;1.00
14401;DHT22;7285;50.894;5.462;2022-12-15T16:52:47;-2.20;1.00
14401;DHT22;7285;50.894;5.462;2022-12-15T16:55:20;-2.30;1.00